createdAt,value
2018-09-17T00:00:34.183Z,15.00
2018-09-17T00:03:02.461Z,14.90
2018-09-17T00:05:31.295Z,15.00
2018-09-17T00:07:59.532Z,15.00
2018-09-17T00:10:27.774Z,15.00
2018-09-17T00:12:56.040Z,15.00
2018-09-17T00:15:25.000Z,15.00
2018-09-17T00:18:00.181Z,15.00
2018-09-17T00:20:28.958Z,15.00
2018-09-17T00:25:43.604Z,14.80
2018-09-17T00:28:11.882Z,14.70
2018-09-17T00:30:40.129Z,14.70
2018-09-17T00:33:09.121Z,14.80
2018-09-17T00:35:37.373Z,14.70
2018-09-17T00:38:12.621Z,14.60
2018-09-17T00:40:41.460Z,14.70
2018-09-17T00:43:09.765Z,14.70
2018-09-17T00:45:38.658Z,14.60
2018-09-17T00:48:06.918Z,14.60
2018-09-17T00:50:35.166Z,14.50
2018-09-17T00:53:04.029Z,14.50
2018-09-17T00:55:32.261Z,14.50
2018-09-17T00:58:00.728Z,14.60
2018-09-17T01:00:29.362Z,14.60
2018-09-17T01:02:57.617Z,14.60
2018-09-17T01:05:25.877Z,14.50
2018-09-17T01:07:54.714Z,14.40
2018-09-17T01:10:22.961Z,14.40
2018-09-17T01:12:51.211Z,14.50
2018-09-17T01:15:19.490Z,14.50
2018-09-17T01:17:47.742Z,14.40
2018-09-17T01:20:16.833Z,14.50
2018-09-17T01:22:45.947Z,14.50
2018-09-17T01:25:15.170Z,14.50
2018-09-17T01:27:43.505Z,14.40
2018-09-17T01:30:11.766Z,14.40
2018-09-17T01:32:40.061Z,14.40
2018-09-17T01:35:08.776Z,14.20
2018-09-17T01:37:37.036Z,14.20
2018-09-17T01:40:05.595Z,14.20
2018-09-17T01:42:36.900Z,14.20
2018-09-17T01:45:05.190Z,14.20
2018-09-17T01:47:33.440Z,14.20
2018-09-17T01:50:01.702Z,14.20
2018-09-17T01:52:30.826Z,14.20
2018-09-17T01:54:59.074Z,14.10
2018-09-17T01:57:27.986Z,14.20
2018-09-17T01:59:57.248Z,14.20
2018-09-17T02:02:25.538Z,14.10
2018-09-17T02:04:53.766Z,14.10
2018-09-17T02:07:22.041Z,14.10
2018-09-17T02:09:50.274Z,14.00
2018-09-17T02:12:18.654Z,14.00
2018-09-17T02:14:46.911Z,14.00
2018-09-17T02:17:15.186Z,14.00
2018-09-17T02:19:43.965Z,13.90
2018-09-17T02:22:12.202Z,13.90
2018-09-17T02:24:40.814Z,13.80
2018-09-17T02:27:09.082Z,13.80
2018-09-17T02:29:37.854Z,13.70
2018-09-17T02:32:06.179Z,13.70
2018-09-17T02:34:34.415Z,13.70
2018-09-17T02:37:02.690Z,13.70
2018-09-17T02:39:31.418Z,13.80
2018-09-17T02:41:59.646Z,13.70
2018-09-17T02:44:28.131Z,13.60
2018-09-17T02:46:57.078Z,13.60
2018-09-17T02:49:25.330Z,13.50
2018-09-17T02:51:54.577Z,13.50
2018-09-17T02:54:23.406Z,13.60
2018-09-17T02:56:52.473Z,13.60
2018-09-17T02:59:20.734Z,13.60
2018-09-17T03:01:48.972Z,13.60
2018-09-17T03:04:17.261Z,13.60
2018-09-17T03:06:46.142Z,13.50
2018-09-17T03:09:15.206Z,13.40
2018-09-17T03:11:43.585Z,13.40
2018-09-17T03:14:11.824Z,13.30
2018-09-17T03:16:52.016Z,13.40
2018-09-17T03:19:21.028Z,13.40
2018-09-17T03:21:49.283Z,13.50
2018-09-17T03:24:17.979Z,13.40
2018-09-17T03:26:46.217Z,13.40
2018-09-17T03:29:14.486Z,13.40
2018-09-17T03:31:43.340Z,13.30
2018-09-17T03:34:11.588Z,13.20
2018-09-17T03:36:39.849Z,13.30
2018-09-17T03:39:08.451Z,13.30
2018-09-17T03:41:36.686Z,13.30
2018-09-17T03:44:04.959Z,13.30
2018-09-17T03:46:33.520Z,13.30
2018-09-17T03:49:01.719Z,13.30
2018-09-17T03:51:30.691Z,13.20
2018-09-17T03:53:59.535Z,13.10
2018-09-17T03:56:27.802Z,13.00
2018-09-17T03:58:56.075Z,13.00
2018-09-17T04:01:24.402Z,13.00
2018-09-17T04:03:52.645Z,13.10
2018-09-17T04:06:21.450Z,13.00
2018-09-17T04:08:49.714Z,13.10
2018-09-17T04:11:17.979Z,13.10
2018-09-17T04:13:46.231Z,13.10
2018-09-17T04:16:14.498Z,13.20
2018-09-17T04:18:43.384Z,13.10
2018-09-17T04:21:11.630Z,13.10
2018-09-17T04:23:39.882Z,13.20
2018-09-17T04:26:10.086Z,12.90
2018-09-17T04:28:45.297Z,12.90
2018-09-17T04:31:13.542Z,13.00
2018-09-17T04:33:42.797Z,13.00
2018-09-17T04:36:11.690Z,12.90
2018-09-17T04:38:44.252Z,12.90
2018-09-17T04:41:12.509Z,12.90
2018-09-17T04:43:42.189Z,12.90
2018-09-17T04:46:10.417Z,12.90
2018-09-17T04:48:38.678Z,12.80
2018-09-17T04:51:13.382Z,12.90
2018-09-17T04:53:42.207Z,12.80
2018-09-17T04:56:10.461Z,12.90
2018-09-17T04:58:38.711Z,12.90
2018-09-17T05:01:06.994Z,12.80
2018-09-17T05:03:35.589Z,12.80
2018-09-17T05:06:04.184Z,12.70
2018-09-17T05:08:32.431Z,12.80
2018-09-17T05:11:00.758Z,12.80
2018-09-17T05:13:29.431Z,12.80
2018-09-17T05:15:57.602Z,12.80
2018-09-17T05:18:26.478Z,12.80
2018-09-17T05:20:54.742Z,12.90
2018-09-17T05:23:22.994Z,12.90
2018-09-17T05:25:51.449Z,12.90
2018-09-17T05:28:20.062Z,12.90
2018-09-17T05:30:48.349Z,12.90
2018-09-17T05:33:16.749Z,13.00
2018-09-17T05:35:45.025Z,13.00
2018-09-17T05:38:14.593Z,13.00
2018-09-17T05:40:43.325Z,13.20
2018-09-17T05:43:11.585Z,13.30
2018-09-17T05:45:39.853Z,13.50
2018-09-17T05:48:08.123Z,13.70
2018-09-17T05:50:36.367Z,14.00
2018-09-17T05:53:05.346Z,14.20
2018-09-17T05:55:33.659Z,14.40
2018-09-17T05:58:01.925Z,14.60
2018-09-17T06:00:30.242Z,14.70
2018-09-17T06:02:59.153Z,14.90
2018-09-17T06:05:27.504Z,15.00
2018-09-17T06:07:55.762Z,15.30
2018-09-17T06:10:24.001Z,15.40
2018-09-17T06:12:52.246Z,15.60
2018-09-17T06:15:21.011Z,15.60
2018-09-17T06:17:49.245Z,15.80
2018-09-17T06:20:17.862Z,15.90
2018-09-17T06:22:46.118Z,16.10
2018-09-17T06:25:14.888Z,16.30
2018-09-17T06:27:43.146Z,16.50
2018-09-17T06:30:12.083Z,16.60
2018-09-17T06:32:40.330Z,16.70
2018-09-17T06:35:08.663Z,16.60
2018-09-17T06:37:36.943Z,16.40
2018-09-17T06:40:06.002Z,16.30
2018-09-17T06:42:34.271Z,16.00
2018-09-17T06:45:02.587Z,15.90
2018-09-17T06:47:31.606Z,15.90
2018-09-17T06:49:59.879Z,15.80
2018-09-17T06:52:28.685Z,15.70
2018-09-17T06:54:56.890Z,15.70
2018-09-17T06:57:25.120Z,15.80
2018-09-17T06:59:53.465Z,15.70
2018-09-17T07:02:21.746Z,15.80
2018-09-17T07:04:50.327Z,15.90
2018-09-17T07:07:18.586Z,16.10
2018-09-17T07:09:46.837Z,16.30
2018-09-17T07:12:15.847Z,16.60
2018-09-17T07:14:44.148Z,17.00
2018-09-17T07:17:12.433Z,17.30
2018-09-17T07:19:41.357Z,17.40
2018-09-17T07:22:09.714Z,17.70
2018-09-17T07:24:38.153Z,17.90
2018-09-17T07:27:06.773Z,18.20
2018-09-17T07:29:35.063Z,18.40
2018-09-17T07:32:03.327Z,18.80
2018-09-17T07:34:31.661Z,19.40
2018-09-17T07:37:00.164Z,20.00
2018-09-17T07:39:28.798Z,20.30
2018-09-17T07:41:57.091Z,20.70
2018-09-17T07:44:25.345Z,21.10
2018-09-17T07:46:53.618Z,21.00
2018-09-17T07:49:21.870Z,21.50
2018-09-17T07:51:50.605Z,21.60
2018-09-17T07:54:19.261Z,21.80
2018-09-17T07:56:47.524Z,22.50
2018-09-17T07:59:15.834Z,23.30
2018-09-17T08:01:44.132Z,24.20
2018-09-17T08:04:12.381Z,24.60
2018-09-17T08:06:40.861Z,24.80
2018-09-17T08:09:12.293Z,24.90
2018-09-17T08:11:41.343Z,24.90
2018-09-17T08:14:09.630Z,24.90
2018-09-17T08:16:37.880Z,24.60
2018-09-17T08:19:06.941Z,24.70
2018-09-17T08:21:35.281Z,25.40
2018-09-17T08:24:04.218Z,25.60
2018-09-17T08:26:33.035Z,26.30
2018-09-17T08:29:01.286Z,26.20
2018-09-17T08:31:29.538Z,26.90
2018-09-17T08:33:57.928Z,26.90
2018-09-17T08:36:26.206Z,27.10
2018-09-17T08:38:55.031Z,27.30
2018-09-17T08:41:23.310Z,27.50
2018-09-17T08:43:51.554Z,27.30
2018-09-17T08:46:19.883Z,27.50
2018-09-17T08:48:48.119Z,27.40
2018-09-17T08:51:16.755Z,28.20
2018-09-17T08:53:45.374Z,28.50
2018-09-17T08:56:19.429Z,28.90
2018-09-17T08:58:53.065Z,28.10
2018-09-17T09:01:26.758Z,29.40
2018-09-17T09:04:01.800Z,29.50
2018-09-17T09:08:36.426Z,29.00
2018-09-17T09:11:11.066Z,29.50
2018-09-17T09:13:44.602Z,28.70
2018-09-17T09:16:13.589Z,29.50
2018-09-17T09:18:42.074Z,29.80
2018-09-17T09:21:10.338Z,29.90
2018-09-17T09:23:38.611Z,30.40
2018-09-17T09:26:08.257Z,30.90
2018-09-17T09:28:36.436Z,30.60
2018-09-17T09:31:04.716Z,30.60
2018-09-17T09:33:33.002Z,30.90
2018-09-17T09:36:01.236Z,30.90
2018-09-17T09:38:29.960Z,31.00
2018-09-17T09:40:58.678Z,31.20
2018-09-17T09:43:26.917Z,30.90
2018-09-17T09:45:55.214Z,31.00
2018-09-17T09:48:23.541Z,31.80
2018-09-17T09:50:51.825Z,31.70
2018-09-17T09:53:20.408Z,32.60
2018-09-17T09:55:48.658Z,33.10
2018-09-17T09:58:16.922Z,32.20
2018-09-17T10:00:50.854Z,32.20
2018-09-17T10:03:27.525Z,32.30
2018-09-17T10:05:56.045Z,32.50
2018-09-17T10:08:24.273Z,32.80
2018-09-17T10:10:58.458Z,32.10
2018-09-17T10:13:32.201Z,31.90
2018-09-17T10:16:05.058Z,32.20
2018-09-17T10:18:39.043Z,32.00
2018-09-17T10:21:07.523Z,31.60
2018-09-17T10:23:35.762Z,33.60
2018-09-17T10:26:04.088Z,33.80
2018-09-17T10:28:32.584Z,34.00
2018-09-17T10:31:00.876Z,33.00
2018-09-17T10:33:29.152Z,32.20
2018-09-17T10:35:57.422Z,32.20
2018-09-17T10:38:25.913Z,33.40
2018-09-17T10:40:54.380Z,32.80
2018-09-17T10:43:22.636Z,33.60
2018-09-17T10:45:50.890Z,34.40
2018-09-17T10:48:19.185Z,34.00
2018-09-17T10:50:47.449Z,33.00
2018-09-17T10:53:16.063Z,31.90
2018-09-17T10:55:44.454Z,31.90
2018-09-17T10:58:12.707Z,31.60
2018-09-17T11:00:41.687Z,30.80
2018-09-17T11:03:10.469Z,30.00
2018-09-17T11:05:38.768Z,30.20
2018-09-17T11:08:07.128Z,30.80
2018-09-17T11:10:35.405Z,30.50
2018-09-17T11:13:04.035Z,28.90
2018-09-17T11:15:39.054Z,28.80
2018-09-17T11:20:35.750Z,28.90
2018-09-17T11:23:03.958Z,28.30
2018-09-17T11:25:32.225Z,28.00
2018-09-17T11:28:00.877Z,28.10
2018-09-17T11:30:29.173Z,28.20
2018-09-17T11:32:57.428Z,27.90
2018-09-17T11:35:25.713Z,27.50
2018-09-17T11:40:28.339Z,27.80
2018-09-17T11:42:56.653Z,27.90
2018-09-17T11:45:24.973Z,27.70
2018-09-17T11:47:53.550Z,27.50
2018-09-17T11:50:22.241Z,27.50
2018-09-17T11:52:52.164Z,27.30
2018-09-17T11:55:20.414Z,27.00
2018-09-17T11:57:48.669Z,27.20
2018-09-17T12:00:22.305Z,27.30
2018-09-17T12:02:55.894Z,27.40
2018-09-17T12:05:29.586Z,27.20
2018-09-17T12:07:58.161Z,27.00
2018-09-17T12:10:26.934Z,27.00
2018-09-17T12:12:55.356Z,27.30
2018-09-17T12:15:23.622Z,27.70
2018-09-17T12:17:58.709Z,27.70
2018-09-17T12:20:27.074Z,27.80
2018-09-17T12:22:55.328Z,27.70
2018-09-17T12:25:23.614Z,27.60
2018-09-17T12:27:52.113Z,27.70
2018-09-17T12:30:20.414Z,27.90
2018-09-17T12:32:48.669Z,28.00
2018-09-17T12:35:17.199Z,27.90
2018-09-17T12:37:45.447Z,27.80
2018-09-17T12:40:14.265Z,27.80
2018-09-17T12:42:43.097Z,27.70
2018-09-17T12:45:11.391Z,27.80
2018-09-17T12:47:39.865Z,27.80
2018-09-17T12:50:08.136Z,28.00
2018-09-17T12:52:37.011Z,27.80
2018-09-17T12:55:05.301Z,27.70
2018-09-17T12:57:33.539Z,27.50
2018-09-17T13:00:02.262Z,27.70
2018-09-17T13:02:30.785Z,28.30
2018-09-17T13:04:59.537Z,28.80
2018-09-17T13:07:28.194Z,29.00
2018-09-17T13:09:56.452Z,29.20
2018-09-17T13:12:25.302Z,30.10
2018-09-17T13:14:53.596Z,31.00
2018-09-17T13:17:21.842Z,31.40
2018-09-17T13:19:50.345Z,31.90
2018-09-17T13:22:18.631Z,32.80
2018-09-17T13:24:46.930Z,34.00
2018-09-17T13:27:21.026Z,34.00
2018-09-17T13:29:49.296Z,33.80
2018-09-17T13:32:18.014Z,33.50
2018-09-17T13:34:46.274Z,33.00
2018-09-17T13:37:14.812Z,33.20
2018-09-17T13:39:43.398Z,33.80
2018-09-17T13:42:12.006Z,33.80
2018-09-17T13:44:40.482Z,33.60
2018-09-17T13:47:08.649Z,34.00
2018-09-17T13:49:36.960Z,34.30
2018-09-17T13:52:05.539Z,34.10
2018-09-17T13:54:35.034Z,33.20
2018-09-17T13:57:03.362Z,32.50
2018-09-17T13:59:32.048Z,32.00
2018-09-17T14:04:34.783Z,30.60
2018-09-17T14:07:02.946Z,30.00
2018-09-17T14:09:31.602Z,29.50
2018-09-17T14:12:00.736Z,29.10
2018-09-17T14:14:29.670Z,28.50
2018-09-17T14:16:58.394Z,28.00
2018-09-17T14:19:27.906Z,27.80
2018-09-17T14:21:56.557Z,27.60
2018-09-17T14:24:25.248Z,27.50
2018-09-17T14:26:54.082Z,27.20
2018-09-17T14:29:23.448Z,27.00
2018-09-17T14:31:57.734Z,26.80
2018-09-17T14:34:26.451Z,26.70
2018-09-17T14:36:54.750Z,26.60
2018-09-17T14:39:23.397Z,26.60
2018-09-17T14:41:51.693Z,26.40
2018-09-17T14:44:20.020Z,26.40
2018-09-17T14:46:48.304Z,26.30
2018-09-17T14:49:16.930Z,26.30
2018-09-17T14:51:45.366Z,26.00
2018-09-17T14:54:14.182Z,25.80
2018-09-17T14:56:42.450Z,25.80
2018-09-17T14:59:11.733Z,25.60
2018-09-17T15:01:40.453Z,25.60
2018-09-17T15:04:08.607Z,25.50
2018-09-17T15:06:36.909Z,25.50
2018-09-17T15:09:07.243Z,25.50
2018-09-17T15:11:36.185Z,25.40
2018-09-17T15:14:04.488Z,25.40
2018-09-17T15:16:32.726Z,25.50
2018-09-17T15:19:01.248Z,25.40
2018-09-17T15:21:29.490Z,25.40
2018-09-17T15:23:57.784Z,25.20
2018-09-17T15:29:08.067Z,25.10
2018-09-17T15:31:36.353Z,25.00
2018-09-17T15:34:05.049Z,25.00
2018-09-17T15:36:34.582Z,25.00
2018-09-17T15:39:04.275Z,25.00
2018-09-17T15:41:32.575Z,25.00
2018-09-17T15:44:00.850Z,24.90
2018-09-17T15:46:29.072Z,24.90
2018-09-17T15:48:57.626Z,25.00
2018-09-17T15:51:26.294Z,24.90
2018-09-17T15:53:55.154Z,24.80
2018-09-17T15:56:23.452Z,24.80
2018-09-17T15:58:51.682Z,24.70
2018-09-17T16:01:19.971Z,24.70
2018-09-17T16:03:48.211Z,24.70
2018-09-17T16:06:16.537Z,24.60
2018-09-17T16:08:45.007Z,24.60
2018-09-17T16:11:17.506Z,24.50
2018-09-17T16:13:45.773Z,24.50
2018-09-17T16:16:14.017Z,24.50
2018-09-17T16:18:42.711Z,24.40
2018-09-17T16:21:11.005Z,24.30
2018-09-17T16:23:39.301Z,24.30
2018-09-17T16:26:07.904Z,24.20
2018-09-17T16:28:36.730Z,24.20
2018-09-17T16:31:05.006Z,24.10
2018-09-17T16:33:33.604Z,24.00
2018-09-17T16:36:02.707Z,24.00
2018-09-17T16:38:31.233Z,23.90
2018-09-17T16:40:59.769Z,23.90
2018-09-17T16:43:28.560Z,23.90
2018-09-17T16:45:56.916Z,23.80
2018-09-17T16:48:26.265Z,23.70
2018-09-17T16:50:54.542Z,23.60
2018-09-17T16:53:23.112Z,23.60
2018-09-17T16:55:51.361Z,23.50
2018-09-17T16:58:19.653Z,23.50
2018-09-17T17:00:54.687Z,23.50
2018-09-17T17:03:22.998Z,23.40
2018-09-17T17:05:51.334Z,23.30
2018-09-17T17:08:19.620Z,23.30
2018-09-17T17:10:47.904Z,23.20
2018-09-17T17:13:16.385Z,23.10
2018-09-17T17:15:48.305Z,23.10
2018-09-17T17:18:18.530Z,23.10
2018-09-17T17:20:47.155Z,23.00
2018-09-17T17:23:15.443Z,22.80
2018-09-17T17:25:43.941Z,22.80
2018-09-17T17:28:12.756Z,22.70
2018-09-17T17:30:41.097Z,22.60
2018-09-17T17:33:09.710Z,22.60
2018-09-17T17:35:38.093Z,22.50
2018-09-17T17:38:16.913Z,22.40
2018-09-17T17:40:45.870Z,22.30
2018-09-17T17:43:14.058Z,22.20
2018-09-17T17:45:42.356Z,22.20
2018-09-17T17:48:10.654Z,22.10
2018-09-17T17:50:38.944Z,22.00
2018-09-17T17:53:07.486Z,22.00
2018-09-17T17:55:35.956Z,21.90
2018-09-17T17:58:04.300Z,21.90
2018-09-17T18:00:32.595Z,21.80
2018-09-17T18:03:00.839Z,21.80
2018-09-17T18:05:29.234Z,21.70
2018-09-17T18:07:57.513Z,21.70
2018-09-17T18:10:26.885Z,21.70
2018-09-17T18:12:55.676Z,21.70
2018-09-17T18:15:24.022Z,21.60
2018-09-17T18:17:58.704Z,21.50
2018-09-17T18:20:27.024Z,21.50
2018-09-17T18:22:55.326Z,21.50
2018-09-17T18:25:23.752Z,21.40
2018-09-17T18:27:52.262Z,21.30
2018-09-17T18:30:20.583Z,21.30
2018-09-17T18:32:49.217Z,21.20
2018-09-17T18:35:17.406Z,21.20
2018-09-17T18:37:45.760Z,21.20
2018-09-17T18:40:14.365Z,21.20
2018-09-17T18:42:42.718Z,21.10
2018-09-17T18:45:10.955Z,21.00
2018-09-17T18:47:39.513Z,21.00
2018-09-17T18:50:07.817Z,20.90
2018-09-17T18:52:36.615Z,20.90
2018-09-17T18:55:04.945Z,20.90
2018-09-17T18:57:33.266Z,20.90
2018-09-17T19:00:02.354Z,20.80
2018-09-17T19:02:31.017Z,20.80
2018-09-17T19:04:59.862Z,20.70
2018-09-17T19:07:28.666Z,20.60
2018-09-17T19:09:56.986Z,20.60
2018-09-17T19:12:25.827Z,20.60
2018-09-17T19:15:00.765Z,20.60
2018-09-17T19:17:34.379Z,20.60
2018-09-17T19:20:03.154Z,20.50
2018-09-17T19:22:36.818Z,20.40
2018-09-17T19:25:05.372Z,20.40
2018-09-17T19:28:40.252Z,20.40
2018-09-17T19:31:08.946Z,20.40
2018-09-17T19:33:37.846Z,20.30
2018-09-17T19:36:06.173Z,20.30
2018-09-17T19:38:48.387Z,20.30
2018-09-17T19:41:16.923Z,20.30
2018-09-17T19:43:45.205Z,20.20
2018-09-17T19:46:16.654Z,20.20
2018-09-17T19:48:45.582Z,20.20
2018-09-17T19:51:21.368Z,20.10
2018-09-17T19:53:51.552Z,20.10
2018-09-17T19:56:19.842Z,20.10
2018-09-17T19:58:53.712Z,20.00
2018-09-17T20:01:22.582Z,20.00
2018-09-17T20:03:50.860Z,20.00
2018-09-17T20:06:21.601Z,19.90
2018-09-17T20:08:49.830Z,19.90
2018-09-17T20:11:18.588Z,19.80
2018-09-17T20:13:46.884Z,19.80
2018-09-17T20:16:15.102Z,19.70
2018-09-17T20:18:43.601Z,19.70
2018-09-17T20:21:11.904Z,19.60
2018-09-17T20:23:40.184Z,19.60
2018-09-17T20:26:08.777Z,19.60
2018-09-17T20:28:37.564Z,19.50
2018-09-17T20:31:05.929Z,19.50
2018-09-17T20:33:35.878Z,19.40
2018-09-17T20:36:04.184Z,19.40
2018-09-17T20:38:32.856Z,19.30
2018-09-17T20:41:01.648Z,19.30
2018-09-17T20:43:29.934Z,19.30
2018-09-17T20:45:58.786Z,19.30
2018-09-17T20:48:27.043Z,19.30
2018-09-17T20:50:55.382Z,19.30
2018-09-17T20:53:24.075Z,19.20
2018-09-17T20:55:52.363Z,19.10
2018-09-17T20:58:21.334Z,19.10
2018-09-17T21:00:49.834Z,19.00
2018-09-17T21:03:18.134Z,19.00
2018-09-17T21:05:46.438Z,19.00
2018-09-17T21:08:14.716Z,18.90
2018-09-17T21:10:43.058Z,18.80
2018-09-17T21:13:11.390Z,18.90
2018-09-17T21:15:40.287Z,18.90
2018-09-17T21:18:09.021Z,18.80
2018-09-17T21:20:37.335Z,18.70
2018-09-17T21:23:05.597Z,18.60
2018-09-17T21:25:33.905Z,18.40
2018-09-17T21:28:02.188Z,18.50
2018-09-17T21:30:31.126Z,18.50
2018-09-17T21:32:59.636Z,18.50
2018-09-17T21:35:27.935Z,18.50
2018-09-17T21:38:02.839Z,18.50
2018-09-17T21:40:31.376Z,18.50
2018-09-17T21:43:02.922Z,18.50
2018-09-17T21:45:31.529Z,18.40
2018-09-17T21:47:59.814Z,18.30
2018-09-17T21:50:28.141Z,18.20
2018-09-17T21:52:57.128Z,18.10
2018-09-17T21:55:25.417Z,18.10
2018-09-17T21:57:53.666Z,18.20
2018-09-17T22:00:22.026Z,18.20
2018-09-17T22:02:50.530Z,18.20
2018-09-17T22:05:18.867Z,18.20
2018-09-17T22:07:47.151Z,18.20
2018-09-17T22:10:16.308Z,18.10
2018-09-17T22:12:44.582Z,18.10
2018-09-17T22:15:12.851Z,18.10
2018-09-17T22:17:41.174Z,18.10
2018-09-17T22:20:09.699Z,18.10
2018-09-17T22:22:37.983Z,18.00
2018-09-17T22:25:06.242Z,18.00
2018-09-17T22:27:34.516Z,17.90
2018-09-17T22:30:03.118Z,17.80
2018-09-17T22:32:31.887Z,17.80
2018-09-17T22:35:00.203Z,17.80
2018-09-17T22:37:28.465Z,17.80
2018-09-17T22:39:57.166Z,17.80
2018-09-17T22:42:25.492Z,17.70
2018-09-17T22:44:53.849Z,17.60
2018-09-17T22:47:22.242Z,17.70
2018-09-17T22:49:50.730Z,17.70
2018-09-17T22:52:26.987Z,17.70
2018-09-17T22:54:55.229Z,17.70
2018-09-17T22:57:23.847Z,17.70
2018-09-17T22:59:52.098Z,17.60
2018-09-17T23:02:26.359Z,17.60
2018-09-17T23:04:54.879Z,17.50
2018-09-17T23:07:23.127Z,17.50
2018-09-17T23:09:51.435Z,17.50
2018-09-17T23:12:19.721Z,17.50
2018-09-17T23:14:47.973Z,17.50
2018-09-17T23:17:16.810Z,17.40
2018-09-17T23:19:46.150Z,17.30
2018-09-17T23:22:14.421Z,17.30
2018-09-17T23:24:42.678Z,17.30
2018-09-17T23:27:11.952Z,17.30
2018-09-17T23:29:42.062Z,17.30
2018-09-17T23:32:10.397Z,17.30
2018-09-17T23:34:38.656Z,17.20
2018-09-17T23:37:06.947Z,17.10
2018-09-17T23:39:36.018Z,17.10
2018-09-17T23:42:04.299Z,17.10
2018-09-17T23:44:32.638Z,17.10
2018-09-17T23:47:01.021Z,17.10
2018-09-17T23:49:29.357Z,17.10
2018-09-17T23:51:57.802Z,17.10
2018-09-17T23:54:26.334Z,17.00
2018-09-17T23:56:54.683Z,17.10
2018-09-17T23:59:22.941Z,17.10
